createdAt,value
2022-12-31T00:01:26.676Z,54.10
2022-12-31T00:03:56.913Z,53.87
2022-12-31T00:06:27.526Z,52.90
2022-12-31T00:08:58.669Z,52.50
2022-12-31T00:11:29.811Z,52.65
2022-12-31T00:14:01.363Z,52.75
2022-12-31T00:16:32.763Z,51.20
2022-12-31T00:19:02.257Z,52.70
2022-12-31T00:21:33.153Z,52.20
2022-12-31T00:24:04.103Z,55.55
2022-12-31T00:26:34.616Z,56.53
2022-12-31T00:29:05.143Z,54.85
2022-12-31T00:31:35.870Z,55.60
2022-12-31T00:34:05.780Z,58.33
2022-12-31T00:36:36.312Z,57.67
2022-12-31T00:39:07.861Z,56.17
2022-12-31T00:41:37.789Z,56.90
2022-12-31T00:44:07.275Z,58.40
2022-12-31T00:49:05.809Z,58.70
2022-12-31T00:51:35.582Z,56.33
2022-12-31T00:54:05.706Z,55.60
2022-12-31T00:56:35.406Z,54.73
2022-12-31T00:59:05.119Z,54.90
2022-12-31T01:01:35.700Z,55.75
2022-12-31T01:04:06.790Z,53.10
2022-12-31T01:06:37.104Z,54.60
2022-12-31T01:09:07.839Z,53.43
2022-12-31T01:11:37.356Z,53.55
2022-12-31T01:14:08.491Z,54.15
2022-12-31T01:16:40.248Z,56.60
2022-12-31T01:19:11.178Z,55.85
2022-12-31T01:21:41.095Z,56.05
2022-12-31T01:24:11.428Z,55.95
2022-12-31T01:26:41.147Z,55.80
2022-12-31T01:29:11.214Z,57.93
2022-12-31T01:31:41.147Z,58.00
2022-12-31T01:34:10.442Z,59.60
2022-12-31T01:36:40.155Z,55.77
2022-12-31T01:39:11.503Z,56.87
2022-12-31T01:41:42.443Z,56.25
2022-12-31T01:44:29.678Z,57.73
2022-12-31T01:47:00.285Z,59.40
2022-12-31T01:49:32.766Z,59.15
2022-12-31T01:52:03.593Z,58.70
2022-12-31T01:54:35.763Z,58.15
2022-12-31T01:57:07.322Z,59.33
2022-12-31T01:59:37.435Z,57.90
2022-12-31T02:02:07.996Z,57.30
2022-12-31T02:04:38.686Z,58.85
2022-12-31T02:07:09.018Z,57.55
2022-12-31T02:09:39.952Z,58.55
2022-12-31T02:12:09.859Z,58.00
2022-12-31T02:14:42.229Z,57.50
2022-12-31T02:17:15.584Z,58.55
2022-12-31T02:20:05.813Z,56.65
2022-12-31T02:22:47.810Z,59.25
2022-12-31T02:25:26.987Z,56.08
2022-12-31T02:28:03.293Z,55.15
2022-12-31T02:30:33.520Z,57.55
2022-12-31T02:33:08.074Z,58.83
2022-12-31T02:35:41.728Z,55.90
2022-12-31T02:38:14.383Z,57.85
2022-12-31T02:40:44.231Z,58.40
2022-12-31T02:43:14.142Z,60.45
2022-12-31T02:45:45.085Z,56.20
2022-12-31T02:48:22.351Z,55.75
2022-12-31T02:50:57.770Z,56.10
2022-12-31T02:53:48.163Z,55.15
2022-12-31T02:56:21.780Z,53.85
2022-12-31T02:59:22.404Z,53.97
2022-12-31T03:02:13.327Z,53.80
2022-12-31T03:04:45.573Z,55.73
2022-12-31T03:07:18.145Z,56.48
2022-12-31T03:09:47.684Z,54.80
2022-12-31T03:12:36.646Z,52.90
2022-12-31T03:15:19.457Z,54.70
2022-12-31T03:17:51.214Z,57.60
2022-12-31T03:20:40.386Z,57.53
2022-12-31T03:23:12.348Z,57.90
2022-12-31T03:25:43.480Z,58.45
2022-12-31T03:28:13.798Z,57.30
2022-12-31T03:30:45.354Z,58.15
2022-12-31T03:33:15.678Z,60.50
2022-12-31T03:35:46.406Z,59.75
2022-12-31T03:38:16.524Z,60.35
2022-12-31T03:40:47.878Z,63.00
2022-12-31T03:43:18.815Z,60.27
2022-12-31T03:45:50.919Z,61.35
2022-12-31T03:48:22.347Z,60.50
2022-12-31T03:50:52.028Z,63.25
2022-12-31T03:53:22.142Z,61.05
2022-12-31T03:55:52.679Z,63.45
2022-12-31T03:58:22.993Z,63.30
2022-12-31T04:00:52.765Z,62.05
2022-12-31T04:03:22.254Z,60.53
2022-12-31T04:05:55.824Z,61.25
2022-12-31T04:08:25.926Z,60.75
2022-12-31T04:10:55.836Z,60.50
2022-12-31T04:13:25.749Z,60.45
2022-12-31T04:15:56.275Z,60.15
2022-12-31T04:18:25.578Z,59.15
2022-12-31T04:21:00.937Z,59.10
2022-12-31T04:23:30.522Z,58.80
2022-12-31T04:26:00.845Z,58.40
2022-12-31T04:28:30.344Z,57.75
2022-12-31T04:31:01.484Z,58.55
2022-12-31T04:33:31.199Z,60.23
2022-12-31T04:36:01.725Z,59.60
2022-12-31T04:38:31.225Z,58.60
2022-12-31T04:41:20.612Z,59.25
2022-12-31T04:43:51.944Z,62.17
2022-12-31T04:46:22.505Z,63.17
2022-12-31T04:48:52.807Z,60.63
2022-12-31T04:51:22.907Z,63.30
2022-12-31T04:53:52.411Z,64.70
2022-12-31T04:56:22.532Z,64.05
2022-12-31T04:58:52.247Z,63.05
2022-12-31T05:01:22.888Z,60.75
2022-12-31T05:03:52.880Z,60.93
2022-12-31T05:06:23.210Z,59.15
2022-12-31T05:08:52.705Z,59.35
2022-12-31T05:11:22.824Z,61.97
2022-12-31T05:13:52.743Z,63.93
2022-12-31T05:16:22.517Z,66.95
2022-12-31T05:18:52.564Z,66.10
2022-12-31T05:21:23.097Z,66.43
2022-12-31T05:23:52.814Z,65.90
2022-12-31T05:26:22.913Z,66.65
2022-12-31T05:28:52.625Z,63.70
2022-12-31T05:31:22.513Z,63.50
2022-12-31T05:33:52.858Z,62.13
2022-12-31T05:36:22.990Z,66.47
2022-12-31T05:38:53.094Z,71.37
2022-12-31T05:41:22.799Z,67.90
2022-12-31T05:43:53.122Z,65.07
2022-12-31T05:46:22.661Z,64.47
2022-12-31T05:48:52.334Z,65.30
2022-12-31T05:51:22.657Z,67.23
2022-12-31T05:53:52.583Z,65.25
2022-12-31T05:56:22.482Z,66.45
2022-12-31T05:58:52.190Z,63.87
2022-12-31T06:01:22.568Z,63.05
2022-12-31T06:03:52.254Z,64.25
2022-12-31T06:06:21.927Z,63.65
2022-12-31T06:08:52.047Z,65.70
2022-12-31T06:11:21.769Z,64.97
2022-12-31T06:13:51.216Z,63.17
2022-12-31T06:16:20.997Z,63.90
2022-12-31T06:18:51.696Z,63.50
2022-12-31T06:21:22.033Z,63.78
2022-12-31T06:23:51.938Z,64.60
2022-12-31T06:26:22.259Z,62.45
2022-12-31T06:28:51.960Z,64.85
2022-12-31T06:31:21.707Z,65.27
2022-12-31T06:33:51.587Z,68.50
2022-12-31T06:36:21.875Z,73.60
2022-12-31T06:38:51.625Z,76.20
2022-12-31T06:41:21.072Z,78.50
2022-12-31T06:43:50.822Z,85.65
2022-12-31T06:46:20.369Z,90.07
2022-12-31T06:48:50.852Z,94.80
2022-12-31T06:51:21.806Z,88.43
2022-12-31T06:53:51.261Z,81.60
2022-12-31T06:56:25.287Z,76.10
2022-12-31T06:58:59.105Z,72.35
2022-12-31T07:01:33.291Z,73.00
2022-12-31T07:04:08.684Z,70.90
2022-12-31T07:06:43.591Z,69.63
2022-12-31T07:09:17.198Z,72.10
2022-12-31T07:11:52.842Z,85.97
2022-12-31T07:14:29.890Z,85.65
2022-12-31T07:17:04.849Z,83.55
2022-12-31T07:19:40.184Z,78.27
2022-12-31T07:22:12.498Z,77.90
2022-12-31T07:24:44.601Z,81.75
2022-12-31T07:27:20.781Z,78.78
2022-12-31T07:29:59.499Z,78.43
2022-12-31T07:32:41.290Z,76.17
2022-12-31T07:35:16.129Z,75.33
2022-12-31T07:37:49.317Z,77.70
2022-12-31T07:40:20.039Z,78.10
2022-12-31T07:42:57.854Z,76.90
2022-12-31T07:45:30.923Z,78.97
2022-12-31T07:48:03.017Z,78.33
2022-12-31T07:50:33.821Z,82.15
2022-12-31T07:53:04.964Z,89.65
2022-12-31T07:55:35.082Z,118.20
2022-12-31T07:58:07.661Z,105.30
2022-12-31T08:00:37.405Z,92.70
2022-12-31T08:03:12.604Z,83.95
2022-12-31T08:05:48.441Z,87.80
2022-12-31T08:08:23.444Z,88.37
2022-12-31T08:10:57.494Z,86.27
2022-12-31T08:13:27.818Z,87.25
2022-12-31T08:15:59.617Z,82.95
2022-12-31T08:18:30.731Z,86.53
2022-12-31T08:21:08.826Z,87.40
2022-12-31T08:23:44.647Z,86.70
2022-12-31T08:26:20.861Z,85.15
2022-12-31T08:28:58.629Z,83.45
2022-12-31T08:31:31.024Z,82.15
2022-12-31T08:34:06.184Z,95.25
2022-12-31T08:36:42.463Z,107.70
2022-12-31T08:39:16.512Z,116.85
2022-12-31T08:41:48.265Z,134.55
2022-12-31T08:44:22.690Z,125.45
2022-12-31T08:46:57.453Z,98.70
2022-12-31T08:49:27.833Z,82.67
2022-12-31T08:51:58.974Z,86.85
2022-12-31T08:54:30.934Z,89.10
2022-12-31T08:57:04.536Z,96.83
2022-12-31T08:59:38.704Z,82.15
2022-12-31T09:02:35.468Z,71.90
2022-12-31T09:05:08.682Z,70.33
2022-12-31T09:07:39.621Z,68.90
2022-12-31T09:10:15.709Z,68.85
2022-12-31T09:12:48.845Z,67.30
2022-12-31T09:15:21.583Z,62.45
2022-12-31T09:17:52.989Z,62.63
2022-12-31T09:20:24.496Z,60.60
2022-12-31T09:22:55.891Z,58.65
2022-12-31T09:25:27.029Z,55.85
2022-12-31T09:28:09.573Z,57.45
2022-12-31T09:33:09.469Z,46.75
2022-12-31T09:35:42.505Z,55.23
2022-12-31T09:38:14.391Z,55.92
2022-12-31T09:41:16.903Z,57.85
2022-12-31T09:44:10.146Z,54.70
2022-12-31T09:46:54.609Z,57.45
2022-12-31T09:49:37.768Z,52.70
2022-12-31T09:52:11.185Z,51.80
2022-12-31T09:54:47.094Z,47.55
2022-12-31T09:57:27.654Z,45.65
2022-12-31T10:00:00.388Z,48.43
2022-12-31T10:02:41.790Z,47.55
2022-12-31T10:05:29.538Z,46.10
2022-12-31T10:08:02.020Z,44.97
2022-12-31T10:10:34.885Z,48.48
2022-12-31T10:13:21.185Z,47.50
2022-12-31T10:16:00.927Z,47.67
2022-12-31T10:18:38.216Z,46.35
2022-12-31T10:21:16.216Z,42.70
2022-12-31T10:23:58.451Z,43.92
2022-12-31T10:26:33.230Z,43.55
2022-12-31T10:29:13.497Z,42.50
2022-12-31T10:31:48.911Z,44.03
2022-12-31T10:34:26.030Z,40.13
2022-12-31T10:36:58.597Z,42.60
2022-12-31T10:39:37.612Z,38.83
2022-12-31T10:42:24.321Z,38.40
2022-12-31T10:45:03.684Z,38.83
2022-12-31T10:47:47.609Z,38.57
2022-12-31T10:50:47.013Z,38.33
2022-12-31T10:53:39.657Z,38.92
2022-12-31T10:56:30.466Z,36.30
2022-12-31T10:59:28.226Z,33.28
2022-12-31T11:02:03.137Z,32.67
2022-12-31T11:04:47.338Z,34.30
2022-12-31T11:07:29.912Z,31.23
2022-12-31T11:10:12.529Z,31.17
2022-12-31T11:12:55.754Z,31.57
2022-12-31T11:15:38.606Z,29.30
2022-12-31T11:18:14.978Z,31.12
2022-12-31T11:20:56.027Z,30.90
2022-12-31T11:23:35.371Z,32.75
2022-12-31T11:26:11.985Z,33.45
2022-12-31T11:28:47.432Z,30.50
2022-12-31T11:31:23.766Z,30.27
2022-12-31T11:34:00.969Z,31.87
2022-12-31T11:36:37.040Z,30.95
2022-12-31T11:39:24.604Z,32.25
2022-12-31T11:42:02.256Z,31.50
2022-12-31T11:44:36.428Z,30.82
2022-12-31T11:47:11.594Z,30.52
2022-12-31T11:50:00.291Z,32.60
2022-12-31T11:52:37.708Z,33.48
2022-12-31T11:55:30.828Z,33.23
2022-12-31T11:58:03.608Z,32.03
2022-12-31T12:00:34.137Z,31.52
2022-12-31T12:03:04.738Z,32.53
2022-12-31T12:05:37.033Z,32.50
2022-12-31T12:08:07.973Z,33.08
2022-12-31T12:10:38.921Z,33.08
2022-12-31T12:13:13.751Z,31.95
2022-12-31T12:15:47.572Z,31.25
2022-12-31T12:18:25.213Z,32.90
2022-12-31T12:21:01.703Z,30.50
2022-12-31T12:23:32.438Z,29.23
2022-12-31T12:26:02.559Z,28.57
2022-12-31T12:28:44.337Z,29.92
2022-12-31T12:31:20.025Z,37.33
2022-12-31T12:33:51.373Z,34.38
2022-12-31T12:39:01.398Z,29.80
2022-12-31T12:41:31.143Z,29.00
2022-12-31T12:44:05.133Z,29.42
2022-12-31T12:46:36.911Z,30.32
2022-12-31T12:49:06.596Z,30.17
2022-12-31T12:51:43.592Z,29.80
2022-12-31T12:54:19.742Z,30.43
2022-12-31T12:56:52.927Z,34.33
2022-12-31T12:59:39.421Z,33.73
2022-12-31T13:02:18.409Z,31.82
2022-12-31T13:04:58.952Z,33.20
2022-12-31T13:07:33.427Z,33.63
2022-12-31T13:10:20.648Z,31.90
2022-12-31T13:15:49.518Z,33.92
2022-12-31T13:18:24.590Z,37.08
2022-12-31T13:20:56.600Z,36.80
2022-12-31T13:23:32.500Z,34.48
2022-12-31T13:26:09.443Z,34.60
2022-12-31T13:28:42.402Z,33.80
2022-12-31T13:31:13.429Z,35.98
2022-12-31T13:33:44.534Z,35.35
2022-12-31T13:36:16.723Z,35.03
2022-12-31T13:38:46.570Z,32.13
2022-12-31T13:41:18.404Z,34.33
2022-12-31T13:43:54.241Z,34.67
2022-12-31T13:46:26.408Z,33.13
2022-12-31T13:51:32.149Z,32.48
2022-12-31T13:54:04.942Z,31.48
2022-12-31T13:56:37.136Z,31.55
2022-12-31T13:59:16.423Z,32.70
2022-12-31T14:01:49.115Z,31.25
2022-12-31T14:04:21.572Z,30.90
2022-12-31T14:06:53.566Z,31.57
2022-12-31T14:09:24.502Z,34.27
2022-12-31T14:12:09.336Z,32.98
2022-12-31T14:14:42.964Z,32.03
2022-12-31T14:17:17.629Z,32.15
2022-12-31T14:20:00.560Z,28.70
2022-12-31T14:22:34.967Z,28.57
2022-12-31T14:25:09.044Z,29.80
2022-12-31T14:27:42.211Z,28.75
2022-12-31T14:30:15.771Z,28.25
2022-12-31T14:32:59.800Z,29.32
2022-12-31T14:35:46.791Z,32.17
2022-12-31T14:38:21.827Z,31.15
2022-12-31T14:40:56.462Z,32.38
2022-12-31T14:43:33.520Z,30.08
2022-12-31T14:46:10.083Z,30.17
2022-12-31T14:48:45.229Z,32.28
2022-12-31T14:51:15.343Z,32.98
2022-12-31T14:53:53.325Z,36.45
2022-12-31T14:56:31.768Z,40.90
2022-12-31T14:59:02.503Z,44.83
2022-12-31T15:01:33.073Z,42.88
2022-12-31T15:04:13.989Z,44.48
2022-12-31T15:06:51.596Z,44.00
2022-12-31T15:09:28.458Z,44.48
2022-12-31T15:12:10.968Z,45.67
2022-12-31T15:15:08.118Z,46.92
2022-12-31T15:17:43.159Z,47.10
2022-12-31T15:20:18.827Z,47.78
2022-12-31T15:22:49.550Z,44.63
2022-12-31T15:25:26.408Z,47.95
2022-12-31T15:27:56.937Z,47.33
2022-12-31T15:30:37.320Z,48.50
2022-12-31T15:33:09.668Z,45.90
2022-12-31T15:38:18.845Z,45.83
2022-12-31T15:40:50.466Z,50.37
2022-12-31T15:43:25.709Z,55.88
2022-12-31T15:45:57.079Z,57.73
2022-12-31T15:48:29.612Z,55.70
2022-12-31T15:51:00.776Z,57.50
2022-12-31T15:53:34.573Z,60.07
2022-12-31T15:56:06.123Z,57.30
2022-12-31T15:58:37.877Z,56.10
2022-12-31T16:01:10.330Z,55.85
2022-12-31T16:03:42.823Z,56.95
2022-12-31T16:06:13.973Z,57.67
2022-12-31T16:08:45.937Z,61.25
2022-12-31T16:11:16.058Z,61.50
2022-12-31T16:13:47.190Z,60.17
2022-12-31T16:16:21.458Z,60.45
2022-12-31T16:18:52.658Z,60.48
2022-12-31T16:21:32.081Z,60.30
2022-12-31T16:24:03.633Z,64.17
2022-12-31T16:26:37.213Z,65.60
2022-12-31T16:29:07.143Z,65.55
2022-12-31T16:31:36.886Z,64.20
2022-12-31T16:34:11.439Z,68.87
2022-12-31T16:36:42.007Z,68.57
2022-12-31T16:39:25.846Z,69.05
2022-12-31T16:42:09.278Z,67.85
2022-12-31T16:44:39.801Z,67.20
2022-12-31T16:47:10.537Z,74.60
2022-12-31T16:49:40.036Z,74.50
2022-12-31T16:52:20.189Z,73.35
2022-12-31T16:54:50.922Z,69.87
2022-12-31T16:57:21.995Z,70.17
2022-12-31T16:59:54.313Z,72.40
2022-12-31T17:02:26.569Z,74.50
2022-12-31T17:04:56.645Z,71.53
2022-12-31T17:07:27.875Z,79.27
2022-12-31T17:10:03.533Z,78.75
2022-12-31T17:12:52.659Z,72.85
2022-12-31T17:15:26.071Z,72.50
2022-12-31T17:17:57.001Z,75.55
2022-12-31T17:20:27.955Z,75.17
2022-12-31T17:22:59.699Z,73.90
2022-12-31T17:25:30.837Z,73.10
2022-12-31T17:28:01.794Z,75.00
2022-12-31T17:30:42.137Z,72.97
2022-12-31T17:33:28.683Z,70.52
2022-12-31T17:36:13.502Z,69.60
2022-12-31T17:38:43.822Z,71.97
2022-12-31T17:41:18.040Z,86.63
2022-12-31T17:43:51.224Z,121.40
2022-12-31T17:46:22.827Z,124.07
2022-12-31T17:48:53.711Z,122.82
2022-12-31T17:51:24.033Z,120.30
2022-12-31T17:53:54.767Z,106.70
2022-12-31T17:56:24.687Z,107.13
2022-12-31T17:58:54.614Z,100.73
2022-12-31T18:01:24.654Z,105.43
2022-12-31T18:03:55.462Z,101.07
2022-12-31T18:06:26.174Z,102.30
2022-12-31T18:08:55.679Z,99.10
2022-12-31T18:11:25.598Z,99.95
2022-12-31T18:13:55.912Z,115.00
2022-12-31T18:16:27.106Z,111.15
2022-12-31T18:18:58.001Z,103.25
2022-12-31T18:21:28.931Z,104.20
2022-12-31T18:26:28.960Z,103.10
2022-12-31T18:28:59.710Z,97.37
2022-12-31T18:31:30.451Z,101.65
2022-12-31T18:34:00.358Z,100.95
2022-12-31T18:36:30.060Z,100.00
2022-12-31T18:38:59.366Z,105.30
2022-12-31T18:41:31.100Z,101.50
2022-12-31T18:44:01.217Z,108.05
2022-12-31T18:46:30.947Z,108.80
2022-12-31T18:49:01.061Z,103.60
2022-12-31T18:51:32.540Z,108.95
2022-12-31T18:54:04.351Z,111.90
2022-12-31T18:56:34.269Z,104.23
2022-12-31T18:59:03.770Z,98.85
2022-12-31T19:01:34.640Z,100.47
2022-12-31T19:04:05.435Z,86.80
2022-12-31T19:06:34.938Z,84.10
2022-12-31T19:09:13.174Z,82.80
2022-12-31T19:11:54.220Z,92.80
2022-12-31T19:14:26.108Z,92.15
2022-12-31T19:16:56.916Z,96.32
2022-12-31T19:19:26.469Z,98.80
2022-12-31T19:21:56.341Z,99.40
2022-12-31T19:24:27.303Z,96.95
2022-12-31T19:26:57.187Z,90.55
2022-12-31T19:29:27.683Z,88.50
2022-12-31T19:32:00.738Z,84.17
2022-12-31T19:34:30.402Z,86.45
2022-12-31T19:36:59.904Z,84.57
2022-12-31T19:39:29.406Z,82.40
2022-12-31T19:42:00.170Z,78.10
2022-12-31T19:44:29.641Z,78.40
2022-12-31T19:47:00.375Z,79.70
2022-12-31T19:49:30.492Z,81.47
2022-12-31T19:52:00.407Z,81.10
2022-12-31T19:54:30.725Z,75.55
2022-12-31T19:57:00.842Z,73.60
2022-12-31T19:59:30.383Z,72.20
2022-12-31T20:02:00.433Z,69.80
2022-12-31T20:04:30.581Z,68.30
2022-12-31T20:07:00.494Z,66.35
2022-12-31T20:09:30.042Z,69.55
2022-12-31T20:11:59.911Z,65.30
2022-12-31T20:14:29.432Z,64.85
2022-12-31T20:16:59.129Z,64.50
2022-12-31T20:19:29.192Z,62.60
2022-12-31T20:21:59.154Z,66.50
2022-12-31T20:24:28.665Z,65.70
2022-12-31T20:26:58.380Z,63.65
2022-12-31T20:29:28.317Z,66.40
2022-12-31T20:31:58.414Z,63.10
2022-12-31T20:34:28.105Z,59.87
2022-12-31T20:36:58.222Z,60.55
2022-12-31T20:39:27.929Z,60.25
2022-12-31T20:41:58.668Z,59.73
2022-12-31T20:44:28.170Z,58.75
2022-12-31T20:46:57.877Z,57.75
2022-12-31T20:50:00.885Z,59.90
2022-12-31T20:52:17.569Z,58.57
2022-12-31T20:54:47.479Z,60.35
2022-12-31T20:57:17.187Z,59.65
2022-12-31T20:59:47.917Z,62.50
2022-12-31T21:02:21.770Z,61.25
2022-12-31T21:04:53.017Z,65.97
2022-12-31T21:07:22.779Z,65.15
2022-12-31T21:09:52.486Z,62.90
2022-12-31T21:12:40.832Z,64.50
2022-12-31T21:15:11.989Z,63.40
2022-12-31T21:17:41.688Z,63.63
2022-12-31T21:20:12.222Z,66.20
2022-12-31T21:22:41.714Z,68.95
2022-12-31T21:25:11.660Z,70.25
2022-12-31T21:27:41.331Z,72.20
2022-12-31T21:30:20.374Z,69.70
2022-12-31T21:32:50.591Z,67.73
2022-12-31T21:38:10.271Z,67.00
2022-12-31T21:40:40.800Z,65.90
2022-12-31T21:43:11.127Z,63.55
2022-12-31T21:45:41.237Z,60.60
2022-12-31T21:48:23.029Z,58.37
2022-12-31T21:50:53.351Z,57.43
2022-12-31T21:53:29.020Z,70.65
2022-12-31T21:56:11.409Z,101.70
2022-12-31T21:58:42.960Z,135.87
2022-12-31T22:01:34.629Z,153.30
2022-12-31T22:04:04.900Z,252.17
2022-12-31T22:06:36.245Z,265.23
2022-12-31T22:09:05.973Z,282.37
2022-12-31T22:11:35.869Z,252.20
2022-12-31T22:14:05.591Z,232.35
2022-12-31T22:16:35.719Z,191.15
2022-12-31T22:19:06.029Z,126.60
2022-12-31T22:21:36.343Z,112.15
2022-12-31T22:24:07.889Z,110.15
2022-12-31T22:26:43.052Z,110.70
2022-12-31T22:29:16.725Z,112.55
2022-12-31T22:31:46.857Z,113.03
2022-12-31T22:34:16.579Z,109.30
2022-12-31T22:36:46.271Z,103.45
2022-12-31T22:39:43.781Z,103.97
2022-12-31T22:42:05.952Z,101.75
2022-12-31T22:44:36.077Z,101.75
2022-12-31T22:47:06.599Z,100.25
2022-12-31T22:49:36.920Z,98.50
2022-12-31T22:52:08.758Z,97.47
2022-12-31T22:54:38.612Z,98.67
2022-12-31T22:57:08.713Z,96.45
2022-12-31T22:59:38.619Z,100.30
2022-12-31T23:02:08.122Z,105.90
2022-12-31T23:04:38.239Z,111.30
2022-12-31T23:07:08.562Z,110.47
2022-12-31T23:09:56.295Z,106.53
2022-12-31T23:12:26.212Z,98.75
2022-12-31T23:15:14.964Z,94.87
2022-12-31T23:18:02.689Z,97.00
2022-12-31T23:20:50.424Z,92.97
2022-12-31T23:23:20.166Z,89.25
2022-12-31T23:25:50.660Z,89.60
2022-12-31T23:28:22.006Z,89.83
2022-12-31T23:30:52.750Z,92.40
2022-12-31T23:33:24.488Z,96.10
2022-12-31T23:36:02.450Z,102.10
2022-12-31T23:38:32.097Z,102.07
2022-12-31T23:41:10.816Z,101.75
2022-12-31T23:43:40.730Z,100.75
2022-12-31T23:46:11.053Z,100.85
2022-12-31T23:48:41.172Z,99.90
2022-12-31T23:51:11.064Z,94.20
2022-12-31T23:53:40.996Z,88.05
2022-12-31T23:56:20.889Z,79.45
2022-12-31T23:58:55.183Z,75.85
